Time;durP1;ratioP1;P1;durP2;ratioP2;P2;SDS_P1;SDS_P2;PMS_P1;PMS_P2;Temp;Humidity;BMP_temperature;BMP_pressure;BME280_temperature;BME280_humidity;BME280_pressure;Samples;Min_cycle;Max_cycle;Signal;HPM_P1;HPM_P2
2023/04/04 00:02:09;;;;;;;11.07;5.50;;;1.00;99.90;;;;;;6127524;23;20031;-82
2023/04/04 00:04:35;;;;;;;7.32;5.30;;;1.30;99.90;;;;;;6127179;23;20010;-82
2023/04/04 00:07:01;;;;;;;12.75;5.43;;;0.90;99.90;;;;;;6126988;23;20120;-82
2023/04/04 00:09:26;;;;;;;8.10;4.97;;;0.90;99.90;;;;;;6127130;23;20103;-82
2023/04/04 00:11:55;;;;;;;12.13;5.32;;;0.90;99.90;;;;;;6102470;23;20064;-82
2023/04/04 00:14:21;;;;;;;8.15;5.28;;;0.90;99.90;;;;;;6126889;23;20097;-83
2023/04/04 00:16:46;;;;;;;8.40;5.45;;;0.80;99.90;;;;;;6153510;23;20369;-83
2023/04/04 00:19:16;;;;;;;12.25;6.03;;;1.20;99.90;;;;;;6126893;23;20028;-82
2023/04/04 00:21:45;;;;;;;14.73;6.13;;;0.80;99.90;;;;;;6126231;23;20014;-82
2023/04/04 00:24:11;;;;;;;9.25;6.35;;;0.80;99.90;;;;;;6102510;23;20014;-83
2023/04/04 00:26:39;;;;;;;11.18;6.05;;;0.80;99.90;;;;;;6126878;23;20013;-82
2023/04/04 00:29:05;;;;;;;11.18;5.47;;;0.80;99.90;;;;;;6126741;23;20036;-83
2023/04/04 00:31:31;;;;;;;9.57;6.15;;;0.80;99.90;;;;;;6156192;23;20463;-82
2023/04/04 00:33:57;;;;;;;12.10;6.75;;;0.80;99.90;;;;;;6157125;23;20010;-83
2023/04/04 00:36:25;;;;;;;11.25;6.18;;;0.50;99.90;;;;;;6155951;23;20342;-81
2023/04/04 00:38:51;;;;;;;8.77;6.00;;;0.80;99.90;;;;;;6156299;23;20381;-82
2023/04/04 00:41:17;;;;;;;10.90;7.00;;;0.80;99.90;;;;;;6129893;23;20060;-82
2023/04/04 00:43:43;;;;;;;12.45;6.50;;;0.80;99.90;;;;;;6130405;23;20045;-82
2023/04/04 00:46:13;;;;;;;12.30;7.28;;;0.80;99.90;;;;;;6156312;23;20009;-82
2023/04/04 00:48:41;;;;;;;9.85;6.32;;;0.80;99.90;;;;;;6105584;23;20017;-82
2023/04/04 00:51:09;;;;;;;12.98;7.10;;;0.90;99.90;;;;;;6129456;23;20013;-82
2023/04/04 00:53:37;;;;;;;11.63;7.13;;;0.90;99.90;;;;;;6125353;23;20015;-83
2023/04/04 00:56:02;;;;;;;13.40;7.43;;;0.80;99.90;;;;;;6127116;23;20040;-81
2023/04/04 00:58:29;;;;;;;11.05;7.40;;;1.10;99.90;;;;;;6127115;23;20310;-81
2023/04/04 01:00:59;;;;;;;11.60;7.22;;;0.90;99.90;;;;;;6125754;23;20021;-82
2023/04/04 01:03:25;;;;;;;14.43;7.70;;;0.90;99.90;;;;;;6100842;23;20014;-82
2023/04/04 01:05:50;;;;;;;13.38;7.75;;;1.00;99.90;;;;;;6124697;23;20294;-82
2023/04/04 01:08:22;;;;;;;12.88;8.10;;;1.00;99.90;;;;;;6100756;23;20026;-82
2023/04/04 01:10:48;;;;;;;11.90;7.65;;;1.10;99.90;;;;;;6124888;23;20025;-82
2023/04/04 01:13:15;;;;;;;12.18;7.40;;;1.00;99.90;;;;;;6124877;23;20017;-82
2023/04/04 01:15:41;;;;;;;13.77;7.57;;;1.00;99.90;;;;;;6125279;23;20068;-82
2023/04/04 01:18:13;;;;;;;10.27;7.07;;;1.00;99.90;;;;;;6100464;23;20010;-82
2023/04/04 01:20:54;;;;;;;15.82;7.57;;;0.90;99.90;;;;;;6124573;23;20017;-82
2023/04/04 01:23:23;;;;;;;13.00;7.78;;;0.90;99.90;;;;;;6125112;23;20164;-82
2023/04/04 01:25:48;;;;;;;12.27;7.65;;;0.90;99.90;;;;;;6100690;23;20065;-82
2023/04/04 01:28:14;;;;;;;11.70;7.70;;;0.90;99.90;;;;;;6126843;23;20014;-82
2023/04/04 01:30:41;;;;;;;10.98;7.32;;;0.80;99.90;;;;;;6100562;23;20014;-82
2023/04/04 01:33:21;;;;;;;12.40;7.70;;;0.90;99.90;;;;;;6100694;23;20010;-82
2023/04/04 01:36:02;;;;;;;12.15;7.60;;;0.80;99.90;;;;;;6124790;23;20319;-82
2023/04/04 01:38:33;;;;;;;13.50;8.48;;;0.80;99.90;;;;;;6125344;23;20406;-82
2023/04/04 01:41:09;;;;;;;13.35;8.25;;;0.80;99.90;;;;;;6124915;23;20349;-82
2023/04/04 01:43:34;;;;;;;10.70;7.30;;;0.70;99.90;;;;;;6125920;23;20037;-82
2023/04/04 01:46:01;;;;;;;15.45;8.18;;;0.70;99.90;;;;;;6099621;23;20018;-82
2023/04/04 01:48:27;;;;;;;12.73;7.90;;;0.60;99.90;;;;;;6123382;23;20018;-82
2023/04/04 01:50:52;;;;;;;13.15;7.65;;;0.60;99.90;;;;;;6123295;23;20010;-82
2023/04/04 01:53:18;;;;;;;11.80;7.75;;;0.60;99.90;;;;;;6123379;23;20039;-82
2023/04/04 01:55:47;;;;;;;12.90;8.25;;;0.60;99.90;;;;;;6123377;23;20452;-82
2023/04/04 01:58:12;;;;;;;15.25;7.85;;;0.60;99.90;;;;;;6123338;23;20398;-82
2023/04/04 02:00:38;;;;;;;12.90;8.07;;;0.50;99.90;;;;;;6123981;23;20053;-83
2023/04/04 02:03:04;;;;;;;17.05;8.68;;;0.50;99.90;;;;;;6124277;23;20438;-83
2023/04/04 02:05:29;;;;;;;14.50;8.70;;;0.50;99.90;;;;;;6124461;23;20365;-82
2023/04/04 02:07:55;;;;;;;16.90;8.75;;;0.50;99.90;;;;;;6125115;23;20054;-83
2023/04/04 02:10:21;;;;;;;14.50;8.48;;;0.40;99.90;;;;;;6122762;23;20345;-83
2023/04/04 02:12:52;;;;;;;13.45;8.07;;;0.40;99.90;;;;;;6099595;23;20021;-83
2023/04/04 02:15:18;;;;;;;14.60;7.68;;;0.30;99.90;;;;;;6123021;23;20010;-83
2023/04/04 02:17:47;;;;;;;13.63;8.60;;;0.30;99.90;;;;;;6098178;23;20018;-83
2023/04/04 02:20:13;;;;;;;12.25;8.27;;;0.30;99.90;;;;;;6124488;23;20426;-83
2023/04/04 02:22:39;;;;;;;13.20;8.48;;;0.30;99.90;;;;;;6098297;23;20100;-83
2023/04/04 02:25:05;;;;;;;12.80;8.30;;;0.30;99.90;;;;;;6124475;23;20476;-82
2023/04/04 02:27:31;;;;;;;15.57;8.68;;;0.20;99.90;;;;;;6122528;23;20022;-83
2023/04/04 02:29:57;;;;;;;14.93;8.80;;;0.80;99.90;;;;;;6098344;23;20014;-83
2023/04/04 02:32:23;;;;;;;13.55;9.13;;;0.20;99.90;;;;;;6097730;23;20025;-83
2023/04/04 02:34:48;;;;;;;13.50;8.50;;;0.20;99.90;;;;;;6098462;23;20002;-83
2023/04/04 02:37:14;;;;;;;12.35;8.52;;;0.20;99.90;;;;;;6124519;23;20046;-83
2023/04/04 02:39:40;;;;;;;12.50;7.82;;;0.10;99.90;;;;;;6098635;23;20022;-83
2023/04/04 02:42:05;;;;;;;15.18;8.93;;;0.10;99.90;;;;;;6124726;23;20334;-83
2023/04/04 02:44:34;;;;;;;15.98;9.13;;;0.10;99.90;;;;;;6123485;23;20081;-83
2023/04/04 02:47:00;;;;;;;13.73;9.00;;;0.10;99.90;;;;;;6098075;23;20392;-83
2023/04/04 02:49:27;;;;;;;16.38;8.68;;;0.10;99.90;;;;;;6122585;23;20014;-83
2023/04/04 02:51:53;;;;;;;15.55;9.25;;;0.00;99.90;;;;;;6126503;23;20179;-82
2023/04/04 02:54:19;;;;;;;15.85;8.88;;;0.10;99.90;;;;;;6126596;23;20022;-83
2023/04/04 02:56:45;;;;;;;16.58;9.18;;;0.00;99.90;;;;;;6127319;23;20017;-83
2023/04/04 02:59:10;;;;;;;14.98;8.95;;;-0.10;99.90;;;;;;6127387;23;20032;-83
2023/04/04 03:01:38;;;;;;;12.43;9.20;;;-0.10;99.90;;;;;;6127048;23;20030;-82
2023/04/04 03:04:04;;;;;;;13.75;8.98;;;-0.10;99.90;;;;;;6127320;23;20009;-82
2023/04/04 03:06:33;;;;;;;15.65;9.05;;;-0.20;99.90;;;;;;6102740;23;20014;-82
2023/04/04 03:08:59;;;;;;;14.93;9.80;;;-0.20;99.90;;;;;;6127731;23;20063;-83
2023/04/04 03:11:25;;;;;;;16.40;9.55;;;-0.20;99.90;;;;;;6127868;23;20080;-82
2023/04/04 03:13:51;;;;;;;14.38;8.77;;;-0.30;99.90;;;;;;6154052;23;20463;-83
2023/04/04 03:16:19;;;;;;;13.88;9.15;;;-0.30;99.90;;;;;;6103476;23;20401;-82
2023/04/04 03:18:45;;;;;;;14.82;8.60;;;-0.30;99.90;;;;;;6128597;23;20116;-82
2023/04/04 03:21:11;;;;;;;12.05;9.27;;;0.10;99.90;;;;;;6130884;23;20013;-82
2023/04/04 03:23:41;;;;;;;16.48;9.48;;;-0.40;99.90;;;;;;6107967;23;20009;-82
2023/04/04 03:26:07;;;;;;;15.18;9.32;;;-0.50;99.90;;;;;;6135233;23;20033;-82
2023/04/04 03:28:33;;;;;;;11.77;9.30;;;-0.10;99.90;;;;;;6163845;23;20491;-83
2023/04/04 03:31:03;;;;;;;15.73;8.75;;;-0.50;99.90;;;;;;6138706;23;20014;-82
2023/04/04 03:33:29;;;;;;;13.57;8.98;;;-0.50;99.90;;;;;;6138222;23;20021;-83
2023/04/04 03:35:57;;;;;;;20.42;10.07;;;-0.50;99.90;;;;;;6127367;23;20020;-83
2023/04/04 03:38:23;;;;;;;15.95;9.82;;;-0.60;99.90;;;;;;6130661;23;20017;-83
2023/04/04 03:40:48;;;;;;;12.18;9.07;;;-0.60;99.90;;;;;;6127337;23;20463;-83
2023/04/04 03:43:14;;;;;;;16.20;9.52;;;-0.60;99.90;;;;;;6153789;23;20010;-82
2023/04/04 03:45:40;;;;;;;13.43;9.77;;;-0.70;99.90;;;;;;6126517;23;20053;-82
2023/04/04 03:48:06;;;;;;;15.65;9.48;;;-0.70;99.90;;;;;;6102617;23;20009;-83
2023/04/04 03:50:35;;;;;;;16.55;10.25;;;-0.70;99.90;;;;;;6103192;23;20028;-82
2023/04/04 03:53:01;;;;;;;13.88;9.50;;;-0.70;99.90;;;;;;6153135;23;20333;-82
2023/04/04 03:55:27;;;;;;;15.27;9.52;;;-0.70;99.90;;;;;;6126952;23;20029;-82
2023/04/04 03:57:52;;;;;;;14.55;9.18;;;-0.70;99.90;;;;;;6153225;23;20104;-83
2023/04/04 04:00:18;;;;;;;13.80;9.82;;;-0.80;99.90;;;;;;6152746;23;20066;-83
2023/04/04 04:02:44;;;;;;;14.27;9.93;;;-0.70;99.90;;;;;;6153666;23;20017;-82
2023/04/04 04:05:09;;;;;;;14.70;9.77;;;-0.80;99.90;;;;;;6126831;23;20017;-83
2023/04/04 04:07:35;;;;;;;14.27;10.02;;;-0.80;99.90;;;;;;6127136;23;20009;-83
2023/04/04 04:10:01;;;;;;;12.88;8.98;;;-0.80;99.90;;;;;;6126684;23;20017;-83
2023/04/04 04:12:26;;;;;;;13.57;9.75;;;-0.80;99.90;;;;;;6126782;23;20422;-83
2023/04/04 04:14:52;;;;;;;13.25;10.52;;;-0.80;99.90;;;;;;6152388;23;20035;-82
2023/04/04 04:17:17;;;;;;;15.88;9.98;;;0.10;99.90;;;;;;6102352;23;20385;-82
2023/04/04 04:19:43;;;;;;;16.23;10.63;;;-0.80;99.90;;;;;;6127216;23;20073;-82
2023/04/04 04:22:09;;;;;;;19.92;10.55;;;-0.80;99.90;;;;;;6127995;23;20014;-83
2023/04/04 04:24:35;;;;;;;16.13;10.80;;;-0.80;99.90;;;;;;6127114;23;20013;-83
2023/04/04 04:27:01;;;;;;;15.10;10.77;;;-0.80;99.90;;;;;;6153555;23;20099;-82
2023/04/04 04:29:26;;;;;;;13.98;9.32;;;-0.80;99.90;;;;;;6151545;23;20341;-82
2023/04/04 04:31:52;;;;;;;16.45;10.02;;;-0.80;99.90;;;;;;6153058;23;20016;-83
2023/04/04 04:34:17;;;;;;;15.82;9.85;;;-0.10;99.90;;;;;;6126712;23;20084;-82
2023/04/04 04:36:43;;;;;;;14.32;10.30;;;-0.80;99.90;;;;;;6127344;23;20456;-82
2023/04/04 04:39:09;;;;;;;13.82;10.45;;;-0.90;99.90;;;;;;6127123;23;20040;-83
2023/04/04 04:41:35;;;;;;;17.80;9.77;;;-0.90;99.90;;;;;;6127480;23;20064;-83
2023/04/04 04:44:03;;;;;;;12.45;9.80;;;-0.90;99.90;;;;;;6152644;23;20013;-82
2023/04/04 04:46:29;;;;;;;14.40;10.02;;;-0.90;99.90;;;;;;6125828;23;20010;-82
2023/04/04 04:48:55;;;;;;;14.25;10.80;;;-0.90;99.90;;;;;;6126670;23;20018;-82
2023/04/04 04:51:20;;;;;;;16.50;10.25;;;-0.90;99.90;;;;;;6126956;23;20018;-83
2023/04/04 04:53:46;;;;;;;16.63;11.43;;;-0.90;99.90;;;;;;6121818;23;20026;-83
2023/04/04 04:56:11;;;;;;;16.30;13.38;;;-0.80;99.90;;;;;;6121909;23;20295;-83
2023/04/04 04:58:37;;;;;;;30.20;22.77;;;-0.80;99.90;;;;;;6121028;23;20065;-83
2023/04/04 05:01:03;;;;;;;21.77;18.30;;;-0.90;99.90;;;;;;6121934;23;20073;-84
2023/04/04 05:03:28;;;;;;;16.48;12.52;;;-0.90;99.90;;;;;;6121460;23;20014;-82
2023/04/04 05:05:54;;;;;;;15.35;11.25;;;-0.70;99.90;;;;;;6123458;23;20033;-82
2023/04/04 05:08:19;;;;;;;16.15;10.75;;;-0.90;99.90;;;;;;6121681;23;20480;-82
2023/04/04 05:10:45;;;;;;;17.60;10.65;;;-0.90;99.90;;;;;;6120952;23;20014;-83
2023/04/04 05:13:14;;;;;;;16.42;10.70;;;-0.10;99.90;;;;;;6121641;23;20069;-82
2023/04/04 05:15:40;;;;;;;15.02;9.90;;;-0.80;99.90;;;;;;6122081;23;20017;-82
2023/04/04 05:18:05;;;;;;;15.77;13.05;;;-0.80;99.90;;;;;;6125242;23;20017;-81
2023/04/04 05:20:34;;;;;;;14.50;10.50;;;-0.40;99.90;;;;;;6125403;23;20397;-81
2023/04/04 05:23:00;;;;;;;13.18;9.98;;;-0.80;99.90;;;;;;6121354;23;20013;-82
2023/04/04 05:25:26;;;;;;;14.90;10.30;;;-0.70;99.90;;;;;;6121067;23;20014;-81
2023/04/04 05:27:56;;;;;;;15.65;11.15;;;-0.60;99.90;;;;;;6120989;23;20085;-81
2023/04/04 05:30:22;;;;;;;17.13;10.88;;;-0.60;99.90;;;;;;6123143;23;20006;-81
2023/04/04 05:32:50;;;;;;;16.17;10.63;;;-0.50;99.90;;;;;;6121184;23;20133;-81
2023/04/04 05:35:15;;;;;;;14.30;9.75;;;-0.50;99.90;;;;;;6122573;23;20461;-81
2023/04/04 05:37:41;;;;;;;18.00;11.15;;;-0.30;99.90;;;;;;6122562;23;20033;-81
2023/04/04 05:40:10;;;;;;;15.55;10.68;;;-0.30;99.90;;;;;;6125420;23;20014;-81
2023/04/04 05:42:36;;;;;;;14.82;10.75;;;-0.20;99.90;;;;;;6098341;23;20018;-81
2023/04/04 05:45:05;;;;;;;12.70;10.00;;;-0.10;99.90;;;;;;6123904;23;20017;-81
2023/04/04 05:47:30;;;;;;;15.23;10.13;;;0.00;99.90;;;;;;6123065;23;20097;-82
2023/04/04 05:49:59;;;;;;;13.25;9.57;;;0.10;99.90;;;;;;6124891;23;20386;-81
2023/04/04 05:52:25;;;;;;;17.65;10.30;;;0.10;99.90;;;;;;6135589;23;20067;-80
2023/04/04 05:54:53;;;;;;;14.80;9.50;;;0.30;99.90;;;;;;6128187;23;20060;-81
2023/04/04 05:57:19;;;;;;;14.25;9.80;;;0.30;99.90;;;;;;6127912;23;20021;-81
2023/04/04 05:59:45;;;;;;;12.55;9.70;;;0.30;99.90;;;;;;6154665;23;20019;-81
2023/04/04 06:02:11;;;;;;;12.18;9.05;;;0.40;99.90;;;;;;6154639;23;20088;-82
2023/04/04 06:04:39;;;;;;;13.25;8.95;;;0.40;99.90;;;;;;6103858;23;20073;-82
2023/04/04 06:07:08;;;;;;;12.50;8.38;;;0.40;99.90;;;;;;6153856;23;20039;-82
2023/04/04 06:09:35;;;;;;;18.33;9.80;;;1.10;99.90;;;;;;6127590;23;20013;-82
2023/04/04 06:12:00;;;;;;;14.23;9.25;;;0.50;99.90;;;;;;6153829;23;20494;-82
2023/04/04 06:14:26;;;;;;;14.15;8.73;;;0.50;99.90;;;;;;6154108;23;20014;-82
2023/04/04 06:16:55;;;;;;;13.27;8.57;;;0.70;99.90;;;;;;6154199;23;20048;-82
2023/04/04 06:19:24;;;;;;;11.80;7.80;;;0.90;99.90;;;;;;6154106;23;20009;-82
2023/04/04 06:21:50;;;;;;;11.43;6.88;;;1.30;99.90;;;;;;6103442;23;20068;-82
2023/04/04 06:24:15;;;;;;;14.15;8.13;;;1.80;99.90;;;;;;6102706;23;20017;-82
2023/04/04 06:26:41;;;;;;;11.27;6.82;;;2.40;99.90;;;;;;6127637;23;20009;-82
2023/04/04 06:29:08;;;;;;;9.13;7.00;;;3.10;99.90;;;;;;6103271;23;20010;-82
2023/04/04 06:31:33;;;;;;;10.20;6.00;;;4.00;99.90;;;;;;6128067;23;20107;-82
2023/04/04 06:34:00;;;;;;;10.68;5.50;;;5.10;99.90;;;;;;6153979;23;20074;-82
2023/04/04 06:36:26;;;;;;;8.68;5.50;;;6.20;99.90;;;;;;6127824;23;20336;-82
2023/04/04 06:38:55;;;;;;;8.45;4.40;;;6.70;99.90;;;;;;6153710;23;20017;-81
2023/04/04 06:41:23;;;;;;;9.70;4.45;;;6.50;99.90;;;;;;6103133;23;20060;-82
2023/04/04 06:43:49;;;;;;;8.10;4.25;;;5.90;99.90;;;;;;6154348;23;20056;-82
2023/04/04 06:46:15;;;;;;;11.13;4.20;;;5.30;99.90;;;;;;6127451;23;20013;-82
2023/04/04 06:48:41;;;;;;;9.10;4.40;;;4.90;99.90;;;;;;6127934;23;20120;-82
2023/04/04 06:51:10;;;;;;;8.10;4.30;;;4.30;99.90;;;;;;6128246;23;20005;-82
2023/04/04 06:53:40;;;;;;;9.50;4.43;;;4.10;99.90;;;;;;6122447;23;20467;-82
2023/04/04 06:56:09;;;;;;;6.53;4.05;;;4.00;99.90;;;;;;6098436;23;20018;-82
2023/04/04 06:58:35;;;;;;;9.75;4.53;;;3.80;99.90;;;;;;6123019;23;20071;-82
2023/04/04 07:01:01;;;;;;;6.88;4.20;;;3.70;99.90;;;;;;6098138;23;20090;-82
2023/04/04 07:03:26;;;;;;;7.72;4.28;;;3.60;99.90;;;;;;6122487;23;20453;-82
2023/04/04 07:05:52;;;;;;;8.18;3.58;;;3.50;99.90;;;;;;6098595;23;20205;-83
2023/04/04 07:08:18;;;;;;;10.25;4.18;;;3.40;99.90;;;;;;6122480;23;20088;-82
2023/04/04 07:10:43;;;;;;;8.25;3.83;;;3.50;99.90;;;;;;6097948;23;20104;-82
2023/04/04 07:13:12;;;;;;;6.78;3.35;;;3.40;99.90;;;;;;6098042;23;20006;-82
2023/04/04 07:15:38;;;;;;;10.50;4.00;;;3.40;99.90;;;;;;6097811;23;20010;-82
2023/04/04 07:18:03;;;;;;;7.07;4.03;;;3.30;99.90;;;;;;6124434;23;20014;-82
2023/04/04 07:20:32;;;;;;;7.93;3.85;;;3.20;99.90;;;;;;6122378;23;20052;-82
2023/04/04 07:22:57;;;;;;;9.60;4.13;;;3.30;99.90;;;;;;6121627;23;20512;-83
2023/04/04 07:25:23;;;;;;;9.05;4.18;;;3.20;99.90;;;;;;6097722;23;20013;-82
2023/04/04 07:27:48;;;;;;;7.93;4.05;;;3.20;99.90;;;;;;6122130;23;20014;-82
2023/04/04 07:30:15;;;;;;;8.50;4.32;;;3.30;99.90;;;;;;6121998;23;20089;-82
2023/04/04 07:32:40;;;;;;;11.40;5.80;;;3.40;99.90;;;;;;6124093;23;20029;-82
2023/04/04 07:35:09;;;;;;;8.70;4.10;;;3.40;99.90;;;;;;6097783;23;20010;-82
2023/04/04 07:37:37;;;;;;;7.70;3.60;;;3.50;99.90;;;;;;6123473;23;20089;-82
2023/04/04 07:40:06;;;;;;;10.32;3.88;;;3.60;99.90;;;;;;6122480;23;20018;-83
2023/04/04 07:42:35;;;;;;;8.32;4.20;;;3.60;99.90;;;;;;6122779;23;20374;-82
2023/04/04 07:45:00;;;;;;;11.88;4.18;;;3.70;99.90;;;;;;6097762;23;20028;-82
2023/04/04 07:47:27;;;;;;;8.75;4.30;;;3.70;99.90;;;;;;6097460;23;20021;-83
2023/04/04 07:49:52;;;;;;;11.10;4.60;;;3.70;99.90;;;;;;6122540;23;20021;-82
2023/04/04 07:52:18;;;;;;;15.75;3.90;;;3.90;99.90;;;;;;6121283;23;20019;-82
2023/04/04 07:54:43;;;;;;;14.20;3.78;;;3.90;99.90;;;;;;6123790;23;20028;-82
2023/04/04 07:57:09;;;;;;;7.90;3.65;;;4.00;99.90;;;;;;6097521;23;20088;-82
2023/04/04 07:59:35;;;;;;;10.23;3.88;;;3.90;99.90;;;;;;6097757;23;20021;-82
2023/04/04 08:02:04;;;;;;;7.65;4.28;;;3.90;99.90;;;;;;6098730;23;20349;-82
2023/04/04 08:04:30;;;;;;;9.50;3.92;;;4.40;99.90;;;;;;6124797;23;20028;-82
2023/04/04 08:06:55;;;;;;;7.47;3.58;;;4.10;99.90;;;;;;6122433;23;20028;-82
2023/04/04 08:09:24;;;;;;;10.05;4.30;;;4.10;99.90;;;;;;6098330;23;20021;-82
2023/04/04 08:11:50;;;;;;;9.52;3.78;;;4.20;99.90;;;;;;6123512;23;20010;-81
2023/04/04 08:14:16;;;;;;;9.43;4.10;;;4.30;99.90;;;;;;6127075;23;20085;-83
2023/04/04 08:16:41;;;;;;;7.40;3.60;;;4.40;99.90;;;;;;6134565;23;20476;-82
2023/04/04 08:19:07;;;;;;;7.95;3.70;;;4.50;99.90;;;;;;6134440;23;20014;-82
2023/04/04 08:21:32;;;;;;;7.80;3.60;;;4.50;99.90;;;;;;6135223;23;20057;-82
2023/04/04 08:23:58;;;;;;;7.32;3.72;;;4.60;99.90;;;;;;6131434;23;20014;-83
2023/04/04 08:26:23;;;;;;;6.82;3.53;;;4.70;99.90;;;;;;6098754;23;20388;-82
2023/04/04 08:28:50;;;;;;;6.32;2.92;;;4.90;99.90;;;;;;6124217;23;20014;-83
2023/04/04 08:31:16;;;;;;;10.45;4.43;;;4.90;99.90;;;;;;6124099;23;20068;-83
2023/04/04 08:33:41;;;;;;;9.50;4.30;;;5.00;99.90;;;;;;6097602;23;20013;-83
2023/04/04 08:36:07;;;;;;;8.68;3.50;;;5.10;99.90;;;;;;6123310;23;20065;-82
2023/04/04 08:38:33;;;;;;;8.35;3.05;;;5.20;99.90;;;;;;6121699;23;20022;-82
2023/04/04 08:40:59;;;;;;;8.63;3.67;;;5.20;99.90;;;;;;6097352;23;20014;-82
2023/04/04 08:43:26;;;;;;;26.33;13.25;;;5.30;99.90;;;;;;6121797;23;20014;-82
2023/04/04 08:45:53;;;;;;;8.38;3.45;;;5.40;99.90;;;;;;6097161;23;20021;-82
2023/04/04 08:48:22;;;;;;;6.13;2.72;;;5.50;99.90;;;;;;6121551;23;20010;-82
2023/04/04 08:50:49;;;;;;;8.00;2.40;;;5.50;99.90;;;;;;6123737;23;20010;-82
2023/04/04 08:53:14;;;;;;;24.02;10.52;;;5.60;99.90;;;;;;6123383;23;20040;-82
2023/04/04 08:55:41;;;;;;;10.55;2.97;;;5.70;99.90;;;;;;6123739;23;20048;-82
2023/04/04 08:58:09;;;;;;;9.18;4.20;;;5.70;99.90;;;;;;6099161;23;20018;-81
2023/04/04 09:00:41;;;;;;;7.50;3.00;;;5.80;99.90;;;;;;6125476;23;20014;-82
2023/04/04 09:03:18;;;;;;;8.80;2.60;;;5.90;99.90;;;;;;6125818;23;20097;-82
2023/04/04 09:05:45;;;;;;;5.53;2.45;;;5.90;99.90;;;;;;6123703;23;20283;-82
2023/04/04 09:08:13;;;;;;;7.30;2.50;;;6.10;99.90;;;;;;6123407;23;20113;-82
2023/04/04 09:10:42;;;;;;;6.57;2.80;;;6.20;99.60;;;;;;6099139;23;20056;-82
2023/04/04 09:13:16;;;;;;;6.50;2.85;;;6.20;99.40;;;;;;6123789;23;20009;-82
2023/04/04 09:15:44;;;;;;;;;;;6.70;99.90;;;;;;6124956;23;20041;-82
2023/04/04 09:18:10;;;;;;;6.55;3.17;;;6.80;98.50;;;;;;6123492;23;19952;-82
2023/04/04 09:20:43;;;;;;;8.20;3.28;;;7.30;98.70;;;;;;6124102;23;20018;-82
2023/04/04 09:23:11;;;;;;;12.98;6.82;;;7.70;96.80;;;;;;6123832;23;20092;-82
2023/04/04 09:25:48;;;;;;;6.32;2.92;;;8.20;96.20;;;;;;6123778;23;20025;-82
2023/04/04 09:28:18;;;;;;;8.85;3.55;;;8.70;96.60;;;;;;6123534;23;20029;-82
2023/04/04 09:30:47;;;;;;;8.18;3.10;;;9.10;93.80;;;;;;6123351;23;20021;-82
2023/04/04 09:33:15;;;;;;;8.50;3.03;;;9.50;93.00;;;;;;6098542;23;20437;-81
2023/04/04 09:35:48;;;;;;;16.65;8.93;;;9.70;92.60;;;;;;6099586;23;20013;-81
2023/04/04 09:38:15;;;;;;;;;;;10.20;92.90;;;;;;6099522;23;20520;-83
2023/04/04 09:40:41;;;;;;;18.17;10.07;;;9.40;92.40;;;;;;6123520;23;19991;-82
2023/04/04 09:43:08;;;;;;;7.78;4.43;;;8.80;92.50;;;;;;6123061;23;20085;-81
2023/04/04 09:45:35;;;;;;;4.80;2.30;;;8.10;94.70;;;;;;6125468;23;20021;-82
2023/04/04 09:48:01;;;;;;;9.25;3.53;;;8.00;94.20;;;;;;6122705;23;20338;-82
2023/04/04 09:50:29;;;;;;;8.90;3.53;;;7.70;93.60;;;;;;6123722;23;20049;-82
2023/04/04 09:52:58;;;;;;;8.90;3.33;;;7.60;93.80;;;;;;6122863;23;20025;-82
2023/04/04 09:55:32;;;;;;;8.88;3.00;;;7.50;94.70;;;;;;6125268;23;20014;-82
2023/04/04 09:57:57;;;;;;;9.10;2.30;;;7.30;93.40;;;;;;6125239;23;20007;-82
2023/04/04 10:00:29;;;;;;;6.70;3.03;;;7.30;93.10;;;;;;6123199;23;20092;-82
2023/04/04 10:02:57;;;;;;;6.30;2.92;;;7.20;94.20;;;;;;6097786;23;20014;-82
2023/04/04 10:05:23;;;;;;;8.88;2.45;;;7.20;94.90;;;;;;6123117;23;20390;-81
2023/04/04 10:07:49;;;;;;;6.15;2.67;;;7.00;93.60;;;;;;6125348;23;20014;-82
2023/04/04 10:10:15;;;;;;;6.88;3.47;;;7.10;94.70;;;;;;6124974;23;20053;-82
2023/04/04 10:12:44;;;;;;;5.50;2.80;;;7.00;94.80;;;;;;6122994;23;20290;-82
2023/04/04 10:15:10;;;;;;;8.07;2.70;;;7.10;95.70;;;;;;6122895;23;20028;-82
2023/04/04 10:17:40;;;;;;;5.70;2.53;;;7.10;94.80;;;;;;6122348;23;20038;-82
2023/04/04 10:20:10;;;;;;;8.38;2.88;;;7.10;94.60;;;;;;6123152;23;20453;-82
2023/04/04 10:22:39;;;;;;;7.78;3.30;;;7.30;95.30;;;;;;6098597;23;20013;-82
2023/04/04 10:25:06;;;;;;;7.60;2.88;;;7.20;93.80;;;;;;6122954;23;20018;-82
2023/04/04 10:27:37;;;;;;;11.27;3.38;;;7.20;94.30;;;;;;6098762;23;20014;-82
2023/04/04 10:30:03;;;;;;;7.97;3.13;;;7.20;93.90;;;;;;6123074;23;20021;-81
2023/04/04 10:32:51;;;;;;;7.53;2.60;;;7.20;94.00;;;;;;6124364;23;20009;-82
2023/04/04 10:35:25;;;;;;;7.07;2.92;;;7.30;94.20;;;;;;6098869;23;20080;-81
2023/04/04 10:37:58;;;;;;;6.05;2.63;;;7.50;93.30;;;;;;6123161;23;20022;-82
2023/04/04 10:40:26;;;;;;;7.55;2.70;;;7.90;97.30;;;;;;6124584;23;20097;-82
2023/04/04 10:42:54;;;;;;;7.15;3.17;;;8.10;93.40;;;;;;6122633;23;20076;-82
2023/04/04 10:45:20;;;;;;;8.60;3.17;;;8.10;93.50;;;;;;6121960;23;20101;-81
2023/04/04 10:47:46;;;;;;;9.25;3.10;;;8.20;93.20;;;;;;6122750;23;20093;-82
2023/04/04 10:50:12;;;;;;;7.20;3.13;;;8.40;94.30;;;;;;6122688;23;20088;-82
2023/04/04 10:52:45;;;;;;;7.72;2.90;;;8.40;93.00;;;;;;6098440;23;20333;-82
2023/04/04 10:55:12;;;;;;;7.93;2.88;;;8.40;92.30;;;;;;6124432;23;20516;-82
2023/04/04 10:57:43;;;;;;;6.32;2.90;;;8.30;93.00;;;;;;6123551;23;20080;-82
2023/04/04 11:00:16;;;;;;;8.05;3.00;;;8.50;93.60;;;;;;6122676;23;20061;-82
2023/04/04 11:03:00;;;;;;;13.32;3.63;;;8.70;93.90;;;;;;6123020;23;20033;-82
2023/04/04 11:05:39;;;;;;;7.07;2.90;;;8.80;92.50;;;;;;6122717;23;20090;-82
2023/04/04 11:08:07;;;;;;;8.00;3.05;;;8.90;92.60;;;;;;6097982;23;20013;-82
2023/04/04 11:10:44;;;;;;;6.95;3.53;;;9.00;92.40;;;;;;6122667;23;20006;-82
2023/04/04 11:13:13;;;;;;;7.63;2.75;;;9.10;93.50;;;;;;6122846;23;20021;-82
2023/04/04 11:15:56;;;;;;;5.65;2.90;;;9.50;95.20;;;;;;6121407;23;20018;-82
2023/04/04 11:18:42;;;;;;;8.65;3.10;;;9.60;92.20;;;;;;6122374;23;20021;-82
2023/04/04 11:21:10;;;;;;;8.07;3.13;;;9.60;91.40;;;;;;6122393;23;20018;-81
2023/04/04 11:23:47;;;;;;;5.53;2.60;;;9.50;91.40;;;;;;6098172;23;20049;-82
2023/04/04 11:26:26;;;;;;;6.72;3.15;;;9.10;90.30;;;;;;6122846;23;20321;-81
2023/04/04 11:28:59;;;;;;;9.55;3.30;;;9.10;90.80;;;;;;6123397;23;20537;-82
2023/04/04 11:31:31;;;;;;;10.27;3.22;;;9.10;91.10;;;;;;6122996;23;20045;-82
2023/04/04 11:34:02;;;;;;;7.85;3.00;;;9.20;92.20;;;;;;6124517;23;20018;-82
2023/04/04 11:36:41;;;;;;;8.30;2.72;;;9.30;89.70;;;;;;6124566;23;20337;-82
2023/04/04 11:39:09;;;;;;;6.57;3.17;;;9.40;91.50;;;;;;6100851;23;20046;-82
2023/04/04 11:41:48;;;;;;;5.28;2.65;;;9.20;90.10;;;;;;6127581;23;20018;-82
2023/04/04 11:44:15;;;;;;;7.95;3.05;;;9.50;91.40;;;;;;6134640;23;20021;-82
2023/04/04 11:46:41;;;;;;;5.38;2.92;;;9.40;88.40;;;;;;6107298;23;20025;-82
2023/04/04 11:49:08;;;;;;;4.15;2.75;;;9.50;85.60;;;;;;6131441;23;20006;-82
2023/04/04 11:51:35;;;;;;;6.03;2.75;;;9.30;87.80;;;;;;6098486;23;20393;-81
2023/04/04 11:54:01;;;;;;;7.57;2.58;;;9.40;88.40;;;;;;6127487;23;20013;-82
2023/04/04 11:56:27;;;;;;;5.50;2.83;;;9.30;88.80;;;;;;6127494;23;20435;-82
2023/04/04 11:58:52;;;;;;;5.90;2.60;;;9.20;88.90;;;;;;6102393;23;20057;-82
2023/04/04 12:01:19;;;;;;;6.45;3.03;;;9.20;88.90;;;;;;6103486;23;20433;-82
2023/04/04 12:03:45;;;;;;;7.45;3.03;;;9.40;88.90;;;;;;6102370;23;20072;-82
2023/04/04 12:06:11;;;;;;;6.22;2.90;;;9.50;89.20;;;;;;6102638;23;20014;-81
2023/04/04 12:08:41;;;;;;;5.18;2.72;;;9.60;89.10;;;;;;6102556;23;20101;-82
2023/04/04 12:11:10;;;;;;;6.18;2.97;;;9.80;90.30;;;;;;6127217;23;20021;-82
2023/04/04 12:13:43;;;;;;;6.82;2.95;;;9.70;83.90;;;;;;6152734;23;20010;-81
2023/04/04 12:16:09;;;;;;;7.50;3.00;;;9.70;85.80;;;;;;6102406;23;20406;-81
2023/04/04 12:18:36;;;;;;;5.80;2.60;;;9.60;86.20;;;;;;6126704;23;20024;-82
2023/04/04 12:21:06;;;;;;;5.68;3.00;;;9.60;87.20;;;;;;6103005;23;20036;-82
2023/04/04 12:23:35;;;;;;;8.73;2.75;;;9.50;88.20;;;;;;6127080;23;20018;-82
2023/04/04 12:26:04;;;;;;;4.32;2.47;;;9.70;88.70;;;;;;6126431;23;20437;-82
2023/04/04 12:28:34;;;;;;;8.75;3.10;;;9.90;91.10;;;;;;6101567;23;20020;-82
2023/04/04 12:31:05;;;;;;;6.47;2.83;;;10.00;89.10;;;;;;6126857;23;20088;-82
2023/04/04 12:33:35;;;;;;;6.38;2.75;;;10.10;89.40;;;;;;6126856;23;20084;-81
2023/04/04 12:36:10;;;;;;;6.40;2.80;;;10.30;90.80;;;;;;6153594;23;20025;-82
2023/04/04 12:38:58;;;;;;;6.40;2.70;;;10.30;87.10;;;;;;6127179;23;20016;-82
2023/04/04 12:41:24;;;;;;;6.88;2.78;;;10.20;84.50;;;;;;6101619;23;20017;-82
2023/04/04 12:43:50;;;;;;;6.05;2.97;;;10.20;87.30;;;;;;6126545;23;20014;-82
2023/04/04 12:46:16;;;;;;;8.60;3.20;;;10.20;87.90;;;;;;6126346;23;20318;-82
2023/04/04 12:48:43;;;;;;;7.93;2.85;;;10.40;88.10;;;;;;6126007;23;20441;-82
2023/04/04 12:51:09;;;;;;;4.10;2.53;;;10.40;86.20;;;;;;6126773;23;20014;-82